Airport View

Enter AWOS ICAO identifier for current METAR.

ex. KFNL

KGCY 011415Z AUTO 00000KT 10SM CLR 17/10 A3003 RMK A01

1 Oct 2020 14:24

Frequency: 128.425

Phone: 423-639-5081

Other Area AWOS: KTRI - KMOR - K0A9 - K0VG

TAF AMD KTRI 011243Z 0113/0212 00000KT P6SM FEW250 FM011330 26004KT P6SM SCT045 FM011700 29009KT P6SM SCT045 FM020100 VRB03KT P6SM FEW050 SCT100